Impacts TAF Board INFO
FOR SITUATIONAL AWARENESS. NOT TO BE USED FOR FLIGHT PLANNING PURPOSES.
IDs:

KIAH - Houston/Bush Intl, TX, US

Issued at 1512 UTC 26 Apr 2018
Updated at 1708 UTC 26 Apr 2018
Potential Impact None Slight Moderate High
Time<<27/06Z 27/07Z 27/08Z 27/09Z 27/10Z 27/11Z 27/12Z 27/13Z 27/14Z 27/15Z 27/16Z 27/17Z 27/18Z>>
Type PRVL PRVL PRVL PRVL PRVL PRVL PRVL PRVL PRVL PRVL PRVL PRVL
VIS >6 >6 >6 >6 >6 >6 >6 >6 >6 >6 >6 >6
CIG -- -- -- -- -- -- -- -- -- -- -- --
Cover SCT SCT SCT SCT SCT SCT SCT SCT SCT SCT SCT SCT
FltCat VFR VFR VFR VFR VFR VFR VFR VFR VFR VFR VFR VFR
WX -- -- -- -- -- -- -- -- -- -- -- --
WDir 340 340 340 340 340 340 340 340 340 340 340 340
WSpd 6 6 6 6 6 6 6 6 6 6 6 6
WGst -- -- -- -- -- -- -- -- -- -- -- --

Raw TAF
KIAH 261512Z 2615/2718 35010KT P6SM SCT110
  FM262200 34006KT P6SM SCT250


METAR Board
Radar Display
Forecast Discussion

FOR SITUATIONAL AWARENESS. NOT TO BE USED FOR FLIGHT PLANNING PURPOSES.